Detall de PIREP

Printer-friendly versionPDF version

[2010/08/10 06:00:00]
Flight IATA:CT2202
Pilot Number:026
Company ICAO:CAT
Aircraft Type:DC85/A
PAX:136
Departing Airport: LFMP
Destination Airport: LFBD
Alternate Airport:LFBO
Online: VATSIM
Route:ORBIL G36 GAI G39 SECHE R17 MIRBA
Flight Level:FL190
No Slew and time accel
No pause
Crash detect
Detect pilot in Cockpit between each 30 and 45 minutes
06:00 Zero fuel Weight: 184718 Lbs, Fuel Weight: 26000 Lbs
06:00 VATSIM:LFMP 100500Z 29006KT 9999 FEW040 20/15 Q1016 NOSIG
06:00 VATSIM:LFBD 100530Z 00000KT 9999 R05/0900VP2000U VCFG NSC 12/11 Q1018 NOSIG
06:00 VOICE CATALONIAN / IATA CT2202
06:04 Parking Brakes off
06:08 Take-off
06:08 Take off Weight: 210042 Lbs
06:08 Wind: 315º @ 009 Knots Heading: 327º
06:08 POS N42º 44´ 55´´ E002º 51´ 58´´
06:08 Gear Up: 171 Knots
06:08 Flaps:2 at 171 Knots
06:09 Flaps:1 at 209 Knots
06:10 Flaps:0 at 195 Knots
06:14 TOC
06:14 Fuel Weight: 22768 Lb
06:23 Wind:286º@010 Knots Heading: 300º Ground Speed: 413 Knots Altitude 19163 ft
06:29 TOD
06:29 Fuel Weight: 19222 Lb
06:38 Wind:077º@001 Knots Heading: 304º Ground Speed: 271 Knots Altitude 6847 ft
06:43 Flaps:1 at 246 Knots
06:44 Flaps:2 at 237 Knots
06:45 Gear Down: 172 Knots
06:45 Flaps:3 at 162 Knots
06:47 Flaps:4 at 168 Knots
06:47 Flaps:5 at 160 Knots
06:48 TouchDown:Rate -157 ft/min Speed: 130 Knots
06:49 Land
06:49 Wind:076º@000 Knots
06:49 Heading: 224º
06:49 Flight Duration: 00:41
06:49 Landing Weight: 202036 Lbs
06:49 POS N44º 49´ 27´´ W000º 43´ 15´´
06:54 Parking brakes on
06:54 Block to Block Duration: 00:50
06:54 Final Fuel: 16847 Lbls
06:54 Spent Fuel: 9153 Lbls
06:54 Flight Length: 220 NM
06:54 TOD Land Length: 85 NM

Exportar CSV

Powered by Drupal - Modified by Danger4k